sensor_id;sensor_type;location;lat;lon;timestamp;P1;durP1;ratioP1;P2;durP2;ratioP2
36501;SDS011;25393;46.108;3.390;2023-03-01T00:01:21;9.23;;;5.50;;
36501;SDS011;25393;46.108;3.390;2023-03-01T00:03:49;12.23;;;6.43;;
36501;SDS011;25393;46.108;3.390;2023-03-01T00:06:17;9.00;;;5.30;;
36501;SDS011;25393;46.108;3.390;2023-03-01T00:08:45;9.70;;;5.53;;
36501;SDS011;25393;46.108;3.390;2023-03-01T00:11:19;8.47;;;5.07;;
36501;SDS011;25393;46.108;3.390;2023-03-01T00:13:47;9.67;;;5.23;;
36501;SDS011;25393;46.108;3.390;2023-03-01T00:16:19;8.73;;;5.60;;
36501;SDS011;25393;46.108;3.390;2023-03-01T00:18:48;11.60;;;5.70;;
36501;SDS011;25393;46.108;3.390;2023-03-01T00:21:15;10.67;;;5.77;;
36501;SDS011;25393;46.108;3.390;2023-03-01T00:23:41;11.90;;;5.67;;
36501;SDS011;25393;46.108;3.390;2023-03-01T00:26:10;11.23;;;5.83;;
36501;SDS011;25393;46.108;3.390;2023-03-01T00:28:38;9.53;;;5.57;;
36501;SDS011;25393;46.108;3.390;2023-03-01T00:31:09;10.57;;;5.63;;
36501;SDS011;25393;46.108;3.390;2023-03-01T00:33:37;9.47;;;5.43;;
36501;SDS011;25393;46.108;3.390;2023-03-01T00:36:04;8.63;;;5.90;;
36501;SDS011;25393;46.108;3.390;2023-03-01T00:38:34;13.77;;;6.10;;
36501;SDS011;25393;46.108;3.390;2023-03-01T00:41:12;10.83;;;6.33;;
36501;SDS011;25393;46.108;3.390;2023-03-01T00:43:40;11.43;;;6.40;;
36501;SDS011;25393;46.108;3.390;2023-03-01T00:46:08;12.63;;;6.50;;
36501;SDS011;25393;46.108;3.390;2023-03-01T00:48:37;10.73;;;6.03;;
36501;SDS011;25393;46.108;3.390;2023-03-01T00:51:07;11.83;;;6.17;;
36501;SDS011;25393;46.108;3.390;2023-03-01T00:53:38;11.33;;;6.17;;
36501;SDS011;25393;46.108;3.390;2023-03-01T00:56:06;11.20;;;6.37;;
36501;SDS011;25393;46.108;3.390;2023-03-01T00:58:34;11.23;;;5.93;;
36501;SDS011;25393;46.108;3.390;2023-03-01T01:01:18;12.40;;;6.50;;
36501;SDS011;25393;46.108;3.390;2023-03-01T01:03:57;10.67;;;5.90;;
36501;SDS011;25393;46.108;3.390;2023-03-01T01:06:29;13.47;;;6.70;;
36501;SDS011;25393;46.108;3.390;2023-03-01T01:08:59;10.43;;;5.93;;
36501;SDS011;25393;46.108;3.390;2023-03-01T01:11:26;7.80;;;5.70;;
36501;SDS011;25393;46.108;3.390;2023-03-01T01:13:54;9.67;;;5.63;;
36501;SDS011;25393;46.108;3.390;2023-03-01T01:16:22;9.80;;;6.53;;
36501;SDS011;25393;46.108;3.390;2023-03-01T01:18:51;9.37;;;6.20;;
36501;SDS011;25393;46.108;3.390;2023-03-01T01:21:18;9.83;;;6.33;;
36501;SDS011;25393;46.108;3.390;2023-03-01T01:23:46;12.80;;;6.63;;
36501;SDS011;25393;46.108;3.390;2023-03-01T01:26:18;14.57;;;6.30;;
36501;SDS011;25393;46.108;3.390;2023-03-01T01:28:47;8.87;;;6.03;;
36501;SDS011;25393;46.108;3.390;2023-03-01T01:31:14;9.37;;;5.67;;
36501;SDS011;25393;46.108;3.390;2023-03-01T01:33:41;9.87;;;6.23;;
36501;SDS011;25393;46.108;3.390;2023-03-01T01:36:08;10.43;;;6.10;;
36501;SDS011;25393;46.108;3.390;2023-03-01T01:38:35;12.43;;;6.23;;
36501;SDS011;25393;46.108;3.390;2023-03-01T01:41:09;9.77;;;5.57;;
36501;SDS011;25393;46.108;3.390;2023-03-01T01:43:44;9.23;;;5.77;;
36501;SDS011;25393;46.108;3.390;2023-03-01T01:46:30;11.00;;;6.20;;
36501;SDS011;25393;46.108;3.390;2023-03-01T01:49:00;7.83;;;5.43;;
36501;SDS011;25393;46.108;3.390;2023-03-01T01:51:33;11.83;;;6.63;;
36501;SDS011;25393;46.108;3.390;2023-03-01T01:54:14;9.27;;;6.13;;
36501;SDS011;25393;46.108;3.390;2023-03-01T01:56:55;11.40;;;6.57;;
36501;SDS011;25393;46.108;3.390;2023-03-01T01:59:26;10.73;;;6.60;;
36501;SDS011;25393;46.108;3.390;2023-03-01T02:01:54;12.60;;;6.17;;
36501;SDS011;25393;46.108;3.390;2023-03-01T02:04:21;12.10;;;6.70;;
36501;SDS011;25393;46.108;3.390;2023-03-01T02:06:53;11.73;;;6.43;;
36501;SDS011;25393;46.108;3.390;2023-03-01T02:09:25;13.00;;;5.83;;
36501;SDS011;25393;46.108;3.390;2023-03-01T02:11:53;11.70;;;6.33;;
36501;SDS011;25393;46.108;3.390;2023-03-01T02:14:20;11.07;;;5.83;;
36501;SDS011;25393;46.108;3.390;2023-03-01T02:16:47;9.03;;;6.10;;
36501;SDS011;25393;46.108;3.390;2023-03-01T02:19:19;10.37;;;5.93;;
36501;SDS011;25393;46.108;3.390;2023-03-01T02:22:12;11.40;;;6.63;;
36501;SDS011;25393;46.108;3.390;2023-03-01T02:27:32;11.50;;;7.03;;
36501;SDS011;25393;46.108;3.390;2023-03-01T02:30:09;11.10;;;6.50;;
36501;SDS011;25393;46.108;3.390;2023-03-01T02:32:39;9.77;;;5.83;;
36501;SDS011;25393;46.108;3.390;2023-03-01T02:35:09;12.03;;;5.83;;
36501;SDS011;25393;46.108;3.390;2023-03-01T02:37:41;12.53;;;6.43;;
36501;SDS011;25393;46.108;3.390;2023-03-01T02:40:10;13.43;;;6.53;;
36501;SDS011;25393;46.108;3.390;2023-03-01T02:42:53;14.87;;;6.83;;
36501;SDS011;25393;46.108;3.390;2023-03-01T02:45:22;12.33;;;6.67;;
36501;SDS011;25393;46.108;3.390;2023-03-01T02:47:49;14.63;;;7.13;;
36501;SDS011;25393;46.108;3.390;2023-03-01T02:50:25;11.53;;;7.03;;
36501;SDS011;25393;46.108;3.390;2023-03-01T02:53:23;13.27;;;7.20;;
36501;SDS011;25393;46.108;3.390;2023-03-01T02:56:00;11.10;;;6.60;;
36501;SDS011;25393;46.108;3.390;2023-03-01T02:58:28;12.27;;;6.50;;
36501;SDS011;25393;46.108;3.390;2023-03-01T03:00:54;13.87;;;7.37;;
36501;SDS011;25393;46.108;3.390;2023-03-01T03:03:22;15.80;;;7.57;;
36501;SDS011;25393;46.108;3.390;2023-03-01T03:05:49;12.03;;;6.73;;
36501;SDS011;25393;46.108;3.390;2023-03-01T03:08:15;13.90;;;6.63;;
36501;SDS011;25393;46.108;3.390;2023-03-01T03:10:50;16.87;;;7.33;;
36501;SDS011;25393;46.108;3.390;2023-03-01T03:13:16;13.97;;;7.40;;
36501;SDS011;25393;46.108;3.390;2023-03-01T03:15:43;11.67;;;7.43;;
36501;SDS011;25393;46.108;3.390;2023-03-01T03:18:11;12.93;;;7.30;;
36501;SDS011;25393;46.108;3.390;2023-03-01T03:20:40;14.27;;;8.20;;
36501;SDS011;25393;46.108;3.390;2023-03-01T03:23:10;11.73;;;6.63;;
36501;SDS011;25393;46.108;3.390;2023-03-01T03:25:37;15.57;;;7.67;;
36501;SDS011;25393;46.108;3.390;2023-03-01T03:28:04;13.87;;;7.40;;
36501;SDS011;25393;46.108;3.390;2023-03-01T03:30:37;11.43;;;7.37;;
36501;SDS011;25393;46.108;3.390;2023-03-01T03:33:06;13.40;;;7.53;;
36501;SDS011;25393;46.108;3.390;2023-03-01T03:35:44;15.10;;;7.43;;
36501;SDS011;25393;46.108;3.390;2023-03-01T03:38:13;11.00;;;7.37;;
36501;SDS011;25393;46.108;3.390;2023-03-01T03:40:43;15.53;;;6.97;;
36501;SDS011;25393;46.108;3.390;2023-03-01T03:43:16;15.03;;;7.13;;
36501;SDS011;25393;46.108;3.390;2023-03-01T03:45:48;12.60;;;7.50;;
36501;SDS011;25393;46.108;3.390;2023-03-01T03:48:16;18.50;;;7.87;;
36501;SDS011;25393;46.108;3.390;2023-03-01T03:50:47;12.13;;;7.67;;
36501;SDS011;25393;46.108;3.390;2023-03-01T03:53:15;17.67;;;8.53;;
36501;SDS011;25393;46.108;3.390;2023-03-01T03:55:42;14.23;;;7.60;;
36501;SDS011;25393;46.108;3.390;2023-03-01T03:58:10;14.57;;;7.80;;
36501;SDS011;25393;46.108;3.390;2023-03-01T04:00:38;15.70;;;8.07;;
36501;SDS011;25393;46.108;3.390;2023-03-01T04:03:07;15.83;;;8.10;;
36501;SDS011;25393;46.108;3.390;2023-03-01T04:05:35;12.90;;;7.87;;
36501;SDS011;25393;46.108;3.390;2023-03-01T04:08:02;16.40;;;8.17;;
36501;SDS011;25393;46.108;3.390;2023-03-01T04:10:30;14.87;;;8.23;;
36501;SDS011;25393;46.108;3.390;2023-03-01T04:12:58;12.17;;;7.97;;
36501;SDS011;25393;46.108;3.390;2023-03-01T04:15:25;12.90;;;8.53;;
36501;SDS011;25393;46.108;3.390;2023-03-01T04:17:53;17.13;;;8.30;;
36501;SDS011;25393;46.108;3.390;2023-03-01T04:20:22;16.17;;;8.30;;
36501;SDS011;25393;46.108;3.390;2023-03-01T04:22:58;12.93;;;8.00;;
36501;SDS011;25393;46.108;3.390;2023-03-01T04:25:37;13.10;;;6.83;;
36501;SDS011;25393;46.108;3.390;2023-03-01T04:28:05;13.67;;;7.70;;
36501;SDS011;25393;46.108;3.390;2023-03-01T04:30:32;16.03;;;7.50;;
36501;SDS011;25393;46.108;3.390;2023-03-01T04:33:05;15.57;;;7.87;;
36501;SDS011;25393;46.108;3.390;2023-03-01T04:35:32;15.70;;;7.63;;
36501;SDS011;25393;46.108;3.390;2023-03-01T04:38:01;15.83;;;7.60;;
36501;SDS011;25393;46.108;3.390;2023-03-01T04:40:27;14.30;;;7.50;;
36501;SDS011;25393;46.108;3.390;2023-03-01T04:42:54;19.07;;;8.37;;
36501;SDS011;25393;46.108;3.390;2023-03-01T04:45:21;15.90;;;8.70;;
36501;SDS011;25393;46.108;3.390;2023-03-01T04:47:50;15.63;;;8.30;;
36501;SDS011;25393;46.108;3.390;2023-03-01T04:50:18;17.13;;;9.00;;
36501;SDS011;25393;46.108;3.390;2023-03-01T04:52:50;16.57;;;8.87;;
36501;SDS011;25393;46.108;3.390;2023-03-01T04:55:16;14.23;;;8.13;;
36501;SDS011;25393;46.108;3.390;2023-03-01T04:57:45;17.20;;;8.03;;
36501;SDS011;25393;46.108;3.390;2023-03-01T05:00:12;13.93;;;8.87;;
36501;SDS011;25393;46.108;3.390;2023-03-01T05:02:50;14.57;;;8.87;;
36501;SDS011;25393;46.108;3.390;2023-03-01T05:05:24;13.93;;;7.50;;
36501;SDS011;25393;46.108;3.390;2023-03-01T05:07:59;15.57;;;8.60;;
36501;SDS011;25393;46.108;3.390;2023-03-01T05:10:27;19.20;;;9.10;;
36501;SDS011;25393;46.108;3.390;2023-03-01T05:12:58;15.57;;;8.17;;
36501;SDS011;25393;46.108;3.390;2023-03-01T05:15:26;12.20;;;7.33;;
36501;SDS011;25393;46.108;3.390;2023-03-01T05:17:54;18.83;;;9.37;;
36501;SDS011;25393;46.108;3.390;2023-03-01T05:20:25;16.07;;;8.63;;
36501;SDS011;25393;46.108;3.390;2023-03-01T05:22:54;15.17;;;8.60;;
36501;SDS011;25393;46.108;3.390;2023-03-01T05:25:22;13.23;;;7.43;;
36501;SDS011;25393;46.108;3.390;2023-03-01T05:27:48;16.40;;;7.97;;
36501;SDS011;25393;46.108;3.390;2023-03-01T05:30:17;16.80;;;8.47;;
36501;SDS011;25393;46.108;3.390;2023-03-01T05:32:45;15.17;;;8.57;;
36501;SDS011;25393;46.108;3.390;2023-03-01T05:35:14;17.60;;;8.50;;
36501;SDS011;25393;46.108;3.390;2023-03-01T05:37:43;17.03;;;8.23;;
36501;SDS011;25393;46.108;3.390;2023-03-01T05:40:12;16.07;;;8.53;;
36501;SDS011;25393;46.108;3.390;2023-03-01T05:42:43;18.87;;;9.03;;
36501;SDS011;25393;46.108;3.390;2023-03-01T05:45:11;15.00;;;8.47;;
36501;SDS011;25393;46.108;3.390;2023-03-01T05:47:39;20.77;;;7.27;;
36501;SDS011;25393;46.108;3.390;2023-03-01T05:50:16;14.90;;;8.47;;
36501;SDS011;25393;46.108;3.390;2023-03-01T05:52:58;14.83;;;7.97;;
36501;SDS011;25393;46.108;3.390;2023-03-01T05:55:27;18.80;;;8.10;;
36501;SDS011;25393;46.108;3.390;2023-03-01T05:57:55;14.83;;;8.63;;
36501;SDS011;25393;46.108;3.390;2023-03-01T06:00:24;14.23;;;7.63;;
36501;SDS011;25393;46.108;3.390;2023-03-01T06:02:55;11.80;;;7.63;;
36501;SDS011;25393;46.108;3.390;2023-03-01T06:05:22;16.63;;;8.27;;
36501;SDS011;25393;46.108;3.390;2023-03-01T06:07:50;13.53;;;8.20;;
36501;SDS011;25393;46.108;3.390;2023-03-01T06:10:20;19.50;;;8.97;;
36501;SDS011;25393;46.108;3.390;2023-03-01T06:12:47;13.17;;;8.27;;
36501;SDS011;25393;46.108;3.390;2023-03-01T06:15:15;17.20;;;9.00;;
36501;SDS011;25393;46.108;3.390;2023-03-01T06:17:43;14.33;;;8.43;;
36501;SDS011;25393;46.108;3.390;2023-03-01T06:20:11;19.00;;;8.90;;
36501;SDS011;25393;46.108;3.390;2023-03-01T06:22:38;14.10;;;8.40;;
36501;SDS011;25393;46.108;3.390;2023-03-01T06:25:06;17.10;;;9.47;;
36501;SDS011;25393;46.108;3.390;2023-03-01T06:27:34;17.37;;;9.13;;
36501;SDS011;25393;46.108;3.390;2023-03-01T06:30:00;18.63;;;8.57;;
36501;SDS011;25393;46.108;3.390;2023-03-01T06:32:27;20.63;;;10.20;;
36501;SDS011;25393;46.108;3.390;2023-03-01T06:34:54;15.40;;;9.13;;
36501;SDS011;25393;46.108;3.390;2023-03-01T06:37:20;21.03;;;9.20;;
36501;SDS011;25393;46.108;3.390;2023-03-01T06:39:47;19.37;;;9.77;;
36501;SDS011;25393;46.108;3.390;2023-03-01T06:42:13;19.13;;;8.80;;
36501;SDS011;25393;46.108;3.390;2023-03-01T06:44:39;14.97;;;9.13;;
36501;SDS011;25393;46.108;3.390;2023-03-01T06:47:06;16.40;;;9.00;;
36501;SDS011;25393;46.108;3.390;2023-03-01T06:49:32;16.00;;;9.03;;
36501;SDS011;25393;46.108;3.390;2023-03-01T06:51:59;21.73;;;10.17;;
36501;SDS011;25393;46.108;3.390;2023-03-01T06:54:25;18.07;;;9.33;;
36501;SDS011;25393;46.108;3.390;2023-03-01T06:56:52;17.23;;;8.90;;
36501;SDS011;25393;46.108;3.390;2023-03-01T06:59:18;18.93;;;9.63;;
36501;SDS011;25393;46.108;3.390;2023-03-01T07:01:45;17.87;;;9.47;;
36501;SDS011;25393;46.108;3.390;2023-03-01T07:04:12;21.10;;;10.60;;
36501;SDS011;25393;46.108;3.390;2023-03-01T07:06:39;19.23;;;10.00;;
36501;SDS011;25393;46.108;3.390;2023-03-01T07:09:05;20.87;;;10.23;;
36501;SDS011;25393;46.108;3.390;2023-03-01T07:11:32;18.47;;;9.50;;
36501;SDS011;25393;46.108;3.390;2023-03-01T07:13:59;21.80;;;10.43;;
36501;SDS011;25393;46.108;3.390;2023-03-01T07:16:26;17.80;;;10.50;;
36501;SDS011;25393;46.108;3.390;2023-03-01T07:18:53;18.67;;;10.50;;
36501;SDS011;25393;46.108;3.390;2023-03-01T07:21:19;15.60;;;9.23;;
36501;SDS011;25393;46.108;3.390;2023-03-01T07:23:47;19.63;;;9.67;;
36501;SDS011;25393;46.108;3.390;2023-03-01T07:26:14;19.10;;;9.43;;
36501;SDS011;25393;46.108;3.390;2023-03-01T07:28:41;18.77;;;10.17;;
36501;SDS011;25393;46.108;3.390;2023-03-01T07:31:07;17.63;;;9.27;;
36501;SDS011;25393;46.108;3.390;2023-03-01T07:33:34;20.53;;;10.27;;
36501;SDS011;25393;46.108;3.390;2023-03-01T07:36:02;22.27;;;10.87;;
36501;SDS011;25393;46.108;3.390;2023-03-01T07:38:29;16.30;;;9.77;;
36501;SDS011;25393;46.108;3.390;2023-03-01T07:41:00;19.97;;;10.37;;
36501;SDS011;25393;46.108;3.390;2023-03-01T07:43:28;18.57;;;9.00;;
36501;SDS011;25393;46.108;3.390;2023-03-01T07:46:02;22.30;;;11.47;;
36501;SDS011;25393;46.108;3.390;2023-03-01T07:48:29;20.87;;;10.63;;
36501;SDS011;25393;46.108;3.390;2023-03-01T07:51:00;19.97;;;9.83;;
36501;SDS011;25393;46.108;3.390;2023-03-01T07:53:30;20.93;;;10.17;;
36501;SDS011;25393;46.108;3.390;2023-03-01T07:56:01;20.70;;;10.07;;
36501;SDS011;25393;46.108;3.390;2023-03-01T07:58:33;18.20;;;9.63;;
36501;SDS011;25393;46.108;3.390;2023-03-01T08:01:02;26.23;;;11.40;;
36501;SDS011;25393;46.108;3.390;2023-03-01T08:03:33;23.23;;;10.80;;
36501;SDS011;25393;46.108;3.390;2023-03-01T08:06:01;21.40;;;10.57;;
36501;SDS011;25393;46.108;3.390;2023-03-01T08:08:30;22.80;;;10.70;;
36501;SDS011;25393;46.108;3.390;2023-03-01T08:11:01;19.33;;;10.07;;
36501;SDS011;25393;46.108;3.390;2023-03-01T08:13:32;24.20;;;10.90;;
36501;SDS011;25393;46.108;3.390;2023-03-01T08:16:06;22.00;;;10.87;;
36501;SDS011;25393;46.108;3.390;2023-03-01T08:18:34;19.20;;;9.83;;
36501;SDS011;25393;46.108;3.390;2023-03-01T08:21:02;19.63;;;9.93;;
36501;SDS011;25393;46.108;3.390;2023-03-01T08:23:29;21.33;;;11.30;;
36501;SDS011;25393;46.108;3.390;2023-03-01T08:26:03;22.60;;;11.73;;
36501;SDS011;25393;46.108;3.390;2023-03-01T08:28:32;22.13;;;11.37;;
36501;SDS011;25393;46.108;3.390;2023-03-01T08:31:02;17.63;;;9.33;;
36501;SDS011;25393;46.108;3.390;2023-03-01T08:33:32;25.03;;;10.60;;
36501;SDS011;25393;46.108;3.390;2023-03-01T08:36:04;23.30;;;10.13;;
36501;SDS011;25393;46.108;3.390;2023-03-01T08:38:33;25.67;;;13.00;;
36501;SDS011;25393;46.108;3.390;2023-03-01T08:41:01;28.37;;;12.43;;
36501;SDS011;25393;46.108;3.390;2023-03-01T08:43:29;20.77;;;10.83;;
36501;SDS011;25393;46.108;3.390;2023-03-01T08:45:56;20.43;;;11.63;;
36501;SDS011;25393;46.108;3.390;2023-03-01T08:48:27;19.10;;;10.90;;
36501;SDS011;25393;46.108;3.390;2023-03-01T08:50:56;20.53;;;10.60;;
36501;SDS011;25393;46.108;3.390;2023-03-01T08:53:26;19.23;;;10.57;;
36501;SDS011;25393;46.108;3.390;2023-03-01T08:55:55;22.03;;;11.77;;
36501;SDS011;25393;46.108;3.390;2023-03-01T08:58:31;21.20;;;11.33;;
36501;SDS011;25393;46.108;3.390;2023-03-01T09:01:06;21.67;;;10.67;;
36501;SDS011;25393;46.108;3.390;2023-03-01T09:03:33;23.60;;;11.80;;
36501;SDS011;25393;46.108;3.390;2023-03-01T09:06:00;23.53;;;11.30;;
36501;SDS011;25393;46.108;3.390;2023-03-01T09:08:31;21.83;;;11.17;;
36501;SDS011;25393;46.108;3.390;2023-03-01T09:11:02;19.13;;;10.37;;
36501;SDS011;25393;46.108;3.390;2023-03-01T09:13:32;21.37;;;10.50;;
36501;SDS011;25393;46.108;3.390;2023-03-01T09:16:01;20.87;;;11.63;;
36501;SDS011;25393;46.108;3.390;2023-03-01T09:18:31;18.70;;;10.50;;
36501;SDS011;25393;46.108;3.390;2023-03-01T09:21:06;22.13;;;10.97;;
36501;SDS011;25393;46.108;3.390;2023-03-01T09:23:35;22.77;;;10.97;;
36501;SDS011;25393;46.108;3.390;2023-03-01T09:26:08;20.87;;;11.00;;
36501;SDS011;25393;46.108;3.390;2023-03-01T09:28:37;22.20;;;11.80;;
36501;SDS011;25393;46.108;3.390;2023-03-01T09:31:04;20.50;;;11.47;;
36501;SDS011;25393;46.108;3.390;2023-03-01T09:33:31;23.60;;;10.73;;
36501;SDS011;25393;46.108;3.390;2023-03-01T09:36:03;19.87;;;11.47;;
36501;SDS011;25393;46.108;3.390;2023-03-01T09:38:31;19.77;;;10.87;;
36501;SDS011;25393;46.108;3.390;2023-03-01T09:41:01;19.17;;;10.57;;
36501;SDS011;25393;46.108;3.390;2023-03-01T09:43:50;24.07;;;11.13;;
36501;SDS011;25393;46.108;3.390;2023-03-01T09:46:22;20.27;;;11.57;;
36501;SDS011;25393;46.108;3.390;2023-03-01T09:49:13;21.97;;;11.00;;
36501;SDS011;25393;46.108;3.390;2023-03-01T09:55:00;20.10;;;10.83;;
36501;SDS011;25393;46.108;3.390;2023-03-01T10:03:30;17.60;;;10.00;;
36501;SDS011;25393;46.108;3.390;2023-03-01T10:06:20;19.10;;;10.77;;
36501;SDS011;25393;46.108;3.390;2023-03-01T10:09:02;21.55;;;10.27;;
36501;SDS011;25393;46.108;3.390;2023-03-01T10:11:53;20.35;;;10.90;;
36501;SDS011;25393;46.108;3.390;2023-03-01T10:14:38;19.17;;;10.07;;
36501;SDS011;25393;46.108;3.390;2023-03-01T10:17:32;20.10;;;11.30;;
36501;SDS011;25393;46.108;3.390;2023-03-01T10:20:19;19.67;;;10.68;;
36501;SDS011;25393;46.108;3.390;2023-03-01T10:23:05;23.73;;;11.70;;
36501;SDS011;25393;46.108;3.390;2023-03-01T10:28:16;21.48;;;10.90;;
36501;SDS011;25393;46.108;3.390;2023-03-01T10:30:46;24.90;;;10.73;;
36501;SDS011;25393;46.108;3.390;2023-03-01T10:33:23;22.80;;;11.32;;
36501;SDS011;25393;46.108;3.390;2023-03-01T10:35:57;20.40;;;11.40;;
36501;SDS011;25393;46.108;3.390;2023-03-01T10:38:26;22.13;;;11.88;;
36501;SDS011;25393;46.108;3.390;2023-03-01T10:41:01;18.90;;;11.13;;
36501;SDS011;25393;46.108;3.390;2023-03-01T10:43:40;21.55;;;12.35;;
36501;SDS011;25393;46.108;3.390;2023-03-01T10:51:47;22.90;;;12.70;;
36501;SDS011;25393;46.108;3.390;2023-03-01T10:57:01;20.48;;;12.05;;
36501;SDS011;25393;46.108;3.390;2023-03-01T11:02:04;20.38;;;12.27;;
36501;SDS011;25393;46.108;3.390;2023-03-01T11:07:32;20.38;;;11.75;;
36501;SDS011;25393;46.108;3.390;2023-03-01T11:10:18;26.73;;;13.90;;
36501;SDS011;25393;46.108;3.390;2023-03-01T11:12:50;22.52;;;13.10;;
36501;SDS011;25393;46.108;3.390;2023-03-01T11:15:31;21.85;;;12.35;;
36501;SDS011;25393;46.108;3.390;2023-03-01T11:17:58;21.58;;;12.85;;
36501;SDS011;25393;46.108;3.390;2023-03-01T11:20:39;26.08;;;14.13;;
36501;SDS011;25393;46.108;3.390;2023-03-01T11:23:11;23.67;;;13.00;;
36501;SDS011;25393;46.108;3.390;2023-03-01T11:25:43;26.63;;;13.70;;
36501;SDS011;25393;46.108;3.390;2023-03-01T11:28:16;24.23;;;13.60;;
36501;SDS011;25393;46.108;3.390;2023-03-01T11:38:42;22.95;;;12.95;;
36501;SDS011;25393;46.108;3.390;2023-03-01T11:44:19;23.15;;;13.18;;
36501;SDS011;25393;46.108;3.390;2023-03-01T11:52:46;21.38;;;13.00;;
36501;SDS011;25393;46.108;3.390;2023-03-01T11:55:19;25.75;;;13.55;;
36501;SDS011;25393;46.108;3.390;2023-03-01T12:20:48;23.17;;;12.90;;
36501;SDS011;25393;46.108;3.390;2023-03-01T12:23:28;28.25;;;13.40;;
36501;SDS011;25393;46.108;3.390;2023-03-01T12:31:47;22.90;;;13.25;;
36501;SDS011;25393;46.108;3.390;2023-03-01T12:37:39;23.63;;;13.70;;
36501;SDS011;25393;46.108;3.390;2023-03-01T12:46:06;20.08;;;12.40;;
36501;SDS011;25393;46.108;3.390;2023-03-01T12:48:39;21.90;;;13.32;;
36501;SDS011;25393;46.108;3.390;2023-03-01T12:51:14;21.27;;;12.80;;
36501;SDS011;25393;46.108;3.390;2023-03-01T12:53:44;21.35;;;12.77;;
36501;SDS011;25393;46.108;3.390;2023-03-01T12:56:16;23.83;;;13.73;;
36501;SDS011;25393;46.108;3.390;2023-03-01T13:01:39;23.33;;;12.73;;
36501;SDS011;25393;46.108;3.390;2023-03-01T13:07:15;21.85;;;12.43;;
36501;SDS011;25393;46.108;3.390;2023-03-01T13:17:57;24.45;;;12.82;;
36501;SDS011;25393;46.108;3.390;2023-03-01T13:31:56;30.17;;;14.13;;
36501;SDS011;25393;46.108;3.390;2023-03-01T13:34:01;23.38;;;12.27;;
36501;SDS011;25393;46.108;3.390;2023-03-01T13:39:04;26.10;;;13.70;;
36501;SDS011;25393;46.108;3.390;2023-03-01T13:41:55;22.42;;;12.60;;
36501;SDS011;25393;46.108;3.390;2023-03-01T13:44:28;21.48;;;12.50;;
36501;SDS011;25393;46.108;3.390;2023-03-01T13:50:18;28.10;;;13.25;;
36501;SDS011;25393;46.108;3.390;2023-03-01T13:55:27;22.63;;;12.55;;
36501;SDS011;25393;46.108;3.390;2023-03-01T13:58:02;22.58;;;11.98;;
36501;SDS011;25393;46.108;3.390;2023-03-01T14:00:40;25.23;;;14.05;;
36501;SDS011;25393;46.108;3.390;2023-03-01T14:05:34;26.58;;;13.20;;
36501;SDS011;25393;46.108;3.390;2023-03-01T14:08:03;22.38;;;12.27;;
36501;SDS011;25393;46.108;3.390;2023-03-01T14:10:45;26.83;;;13.13;;
36501;SDS011;25393;46.108;3.390;2023-03-01T14:13:34;20.02;;;11.63;;
36501;SDS011;25393;46.108;3.390;2023-03-01T14:16:18;28.30;;;12.63;;
36501;SDS011;25393;46.108;3.390;2023-03-01T14:22:17;22.67;;;11.90;;
36501;SDS011;25393;46.108;3.390;2023-03-01T14:24:52;23.15;;;13.02;;
36501;SDS011;25393;46.108;3.390;2023-03-01T14:27:33;23.35;;;12.40;;
36501;SDS011;25393;46.108;3.390;2023-03-01T14:30:03;19.67;;;11.18;;
36501;SDS011;25393;46.108;3.390;2023-03-01T14:32:56;26.52;;;12.52;;
36501;SDS011;25393;46.108;3.390;2023-03-01T14:35:31;27.17;;;13.13;;
36501;SDS011;25393;46.108;3.390;2023-03-01T14:38:02;22.27;;;12.35;;
36501;SDS011;25393;46.108;3.390;2023-03-01T14:40:33;19.23;;;10.88;;
36501;SDS011;25393;46.108;3.390;2023-03-01T14:43:08;19.92;;;11.70;;
36501;SDS011;25393;46.108;3.390;2023-03-01T14:45:37;25.20;;;12.52;;
36501;SDS011;25393;46.108;3.390;2023-03-01T14:48:04;22.88;;;12.30;;
36501;SDS011;25393;46.108;3.390;2023-03-01T14:50:40;23.13;;;12.75;;
36501;SDS011;25393;46.108;3.390;2023-03-01T14:53:14;26.15;;;12.15;;
36501;SDS011;25393;46.108;3.390;2023-03-01T14:56:01;23.50;;;12.60;;
36501;SDS011;25393;46.108;3.390;2023-03-01T14:58:31;23.63;;;12.65;;
36501;SDS011;25393;46.108;3.390;2023-03-01T15:01:00;27.38;;;13.95;;
36501;SDS011;25393;46.108;3.390;2023-03-01T15:03:42;23.73;;;12.60;;
36501;SDS011;25393;46.108;3.390;2023-03-01T15:06:12;26.88;;;12.95;;
36501;SDS011;25393;46.108;3.390;2023-03-01T15:08:44;22.08;;;13.02;;
36501;SDS011;25393;46.108;3.390;2023-03-01T15:11:17;26.10;;;14.70;;
36501;SDS011;25393;46.108;3.390;2023-03-01T15:13:44;23.20;;;12.02;;
36501;SDS011;25393;46.108;3.390;2023-03-01T15:16:13;22.92;;;11.93;;
36501;SDS011;25393;46.108;3.390;2023-03-01T15:18:50;23.38;;;12.85;;
36501;SDS011;25393;46.108;3.390;2023-03-01T15:24:06;59.30;;;25.77;;
36501;SDS011;25393;46.108;3.390;2023-03-01T15:26:50;32.80;;;13.73;;
36501;SDS011;25393;46.108;3.390;2023-03-01T15:29:28;23.88;;;13.27;;
36501;SDS011;25393;46.108;3.390;2023-03-01T15:32:00;26.33;;;12.60;;
36501;SDS011;25393;46.108;3.390;2023-03-01T15:34:31;22.17;;;12.52;;
36501;SDS011;25393;46.108;3.390;2023-03-01T15:37:35;31.35;;;12.93;;
36501;SDS011;25393;46.108;3.390;2023-03-01T15:40:20;22.73;;;12.53;;
36501;SDS011;25393;46.108;3.390;2023-03-01T15:43:00;23.20;;;13.03;;
36501;SDS011;25393;46.108;3.390;2023-03-01T15:45:33;29.17;;;12.65;;
36501;SDS011;25393;46.108;3.390;2023-03-01T15:48:00;26.73;;;12.40;;
36501;SDS011;25393;46.108;3.390;2023-03-01T15:50:34;28.92;;;14.52;;
36501;SDS011;25393;46.108;3.390;2023-03-01T15:53:06;28.10;;;14.30;;
36501;SDS011;25393;46.108;3.390;2023-03-01T15:55:37;22.75;;;12.70;;
36501;SDS011;25393;46.108;3.390;2023-03-01T16:00:36;31.43;;;15.53;;
36501;SDS011;25393;46.108;3.390;2023-03-01T16:03:11;29.17;;;14.33;;
36501;SDS011;25393;46.108;3.390;2023-03-01T16:05:38;25.40;;;14.13;;
36501;SDS011;25393;46.108;3.390;2023-03-01T16:11:18;24.98;;;13.25;;
36501;SDS011;25393;46.108;3.390;2023-03-01T16:13:46;25.30;;;12.52;;
36501;SDS011;25393;46.108;3.390;2023-03-01T16:16:13;25.70;;;13.57;;
36501;SDS011;25393;46.108;3.390;2023-03-01T16:18:43;30.17;;;12.50;;
36501;SDS011;25393;46.108;3.390;2023-03-01T16:21:21;28.92;;;13.32;;
36501;SDS011;25393;46.108;3.390;2023-03-01T16:23:57;26.15;;;13.85;;
36501;SDS011;25393;46.108;3.390;2023-03-01T16:26:32;26.42;;;13.77;;
36501;SDS011;25393;46.108;3.390;2023-03-01T16:29:02;25.52;;;14.30;;
36501;SDS011;25393;46.108;3.390;2023-03-01T16:31:29;22.65;;;13.25;;
36501;SDS011;25393;46.108;3.390;2023-03-01T16:33:56;23.13;;;12.43;;
36501;SDS011;25393;46.108;3.390;2023-03-01T16:36:26;24.93;;;13.60;;
36501;SDS011;25393;46.108;3.390;2023-03-01T16:39:00;24.70;;;13.10;;
36501;SDS011;25393;46.108;3.390;2023-03-01T16:41:31;24.35;;;12.73;;
36501;SDS011;25393;46.108;3.390;2023-03-01T16:44:01;23.10;;;12.45;;
36501;SDS011;25393;46.108;3.390;2023-03-01T16:46:31;31.00;;;13.50;;
36501;SDS011;25393;46.108;3.390;2023-03-01T16:48:58;30.48;;;13.07;;
36501;SDS011;25393;46.108;3.390;2023-03-01T16:51:29;24.95;;;12.88;;
36501;SDS011;25393;46.108;3.390;2023-03-01T16:53:57;24.52;;;13.85;;
36501;SDS011;25393;46.108;3.390;2023-03-01T16:56:25;30.20;;;15.05;;
36501;SDS011;25393;46.108;3.390;2023-03-01T16:58:51;29.23;;;13.37;;
36501;SDS011;25393;46.108;3.390;2023-03-01T17:01:19;24.83;;;13.13;;
36501;SDS011;25393;46.108;3.390;2023-03-01T17:03:50;29.13;;;13.55;;